Terminal Aerodrome Forecast
Issued by NWS

Home | Current Version | Previous Version | Graphics & Text | Print | Product List | Glossary On
Versions: 1 2 3 4 5 6 7 8 9 10 11 12 13 14 15 16 17 18 19 20 21 22 23 24 25 26 27 28 29 30 31 32 33 34 35 36 37
000
FTUS43 KLOT 190800 AAA
TAFMDW
TAF AMD
KMDW 190807Z 1908/2006 20006KT P6SM SCT035 SCT050
     FM190830 19006KT 6SM BR VCSH BKN035 BKN050
     FM190930 21008KT 5SM -TSRA BR OVC035CB
     FM191130 21009KT 6SM BR SCT015 BKN035
     FM191700 22012G20KT P6SM VCSH BKN035 PROB30 1919/1922 4SM TSRA
      BKN025CB
     FM192200 25013G20KT P6SM BKN040
     FM200100 27007KT P6SM SCT040=

USA.gov is the U.S. government's official web portal to all federal, state and local government web resources and services.